Redwood City, CA (94064)

4:28 AM PDT on September 16, 2014 (GMT -0700)
Edgewood Park | Change Station
CLOSE
Current Station
Personal Weather Station
Location: Redwood City, CA
Elevation: 53 ft
Nearby Weather Stations

Elev 53 ft 37.48 °N, 122.25 °W | Updated 2 hours ago

Clear
Clear
56.7 °F
Feels Like 56.7 °F
N
-
Wind Variable Wind from North

Today
High -- | Low -- °F
--% Chance of Precip.
Yesterday
High -- | Low -- °F
Precip. -- in
6:51 AM 7:15 PM
Last Quarter, 46% visible
Pressure 29.92 in
Visibility 10.0 miles
Clouds Clear
Dew Point 48 °F
Humidity 74%
Rainfall 0.00 in
Snow Depth 0 in , 0 in , 0 in
UV 0.0 out of 12
Pollen 5.20 out of 12
Ozone Good
PM2.5 Good
Flu Activity Not available.
METAR KSQL 161110Z AUTO 00000KT 10SM CLR 15/11 A2992 RMK AO2

More Conditions Fewer Conditions

Pressure 29.92 in
Visibility 10.0 miles
Clouds Clear
Dew Point 48 °F
Humidity 74%
Rainfall 0.00 in
Snow Depth 0 in , 0 in , 0 in
UV 0.0 out of 12
Pollen 5.20 out of 12
Ozone Good
PM2.5 Good
Flu Activity Not available.
METAR KSQL 161110Z AUTO 00000KT 10SM CLR 15/11 A2992 RMK AO2

More Conditions Fewer Conditions

10-Day Weather Forecast

Almanac

Astronomy

Sep. 16, 2014 Rise Set
Actual Time 6:51 AM PDT 7:15 PM PDT
Civil Twilight 6:25 AM PDT 7:41 PM PDT
Nautical Twilight 5:54 AM PDT 8:11 PM PDT
Astronomical Twilight 5:23 AM PDT 8:43 PM PDT
Moon 12:11 AM PDT 2:38 PM PDT
Length of Visible Light 13h 15m
Length of Day
12h 23m
Tomorrow will be 2m 22s shorter.
Last Quarter, 46% of the Moon is Illuminated
Today
Last Quarter
Sep 24
New
Oct 1
First Quarter
Oct 8
Full
Oct 15
Last Quarter

Today's Extremes

State Highs State Lows

Community

WunderPhotos

Upload Photos

1,753,724 photos uploaded!

WunderBlogs® & News

By Dr. Jeff Masters
Director of Meteorology, Weather Underground
By Kari Strenfel
Meteorologist, Weather Underground
By Christopher C. Burt
Weather Historian, Weather Underground
September 16, 2014
September 16, 2014
September 16, 2014

Nearby

Air Quality

  Air Quality AQ Index Pollutant
Yesterday Good
PM2.5
Yesterday Good
OZONE
Current Good
PM2.5
Current Good
OZONE
Tuesday Good
PM2.5
Wednesday Good
OZONE
Thursday Good
OZONE
Friday Good
OZONE
Saturday Good
OZONE

Snow Depth

Station Depth Elevation
Sonora Pass 0 in 8800 ft
Blue Lakes 0 in 8000 ft
Forestdale Creek 0 in 8029 ft
Echo Peak 0 in 7800 ft
Summit Meadow 0 in 9122 ft

Earthquake Activity

City Distance Mag. Time & Date
Cobb, California 98 miles 2.7 11:07 AM PDT
2014-09-14
Minimum magnitude displayed is 2.5.

Coastal Water Temperatures

Place Temperature
No Stations Reporting

Nearby Weather Stations